Погода Вилькеймына 2 недели

Варминско-Мазурское воеводство, Польша

18 - 31 мая
  • 18мая
    Сегодня
    +11°
    +24°
    Ясно и безоблачно
    ВремяПогодаТемператураВлажностьДавлениеВетер, м/сВероятность осадков
    02:00Ясно и безоблачно+11°C57 %756 мм3.3 м/с2 %
    05:00Ясно и безоблачно+10°C64 %755 мм2.9 м/с2 %
    08:00Ясно и безоблачно+16°C58 %756 мм2.8 м/с2 %
    11:00Ясно и безоблачно+21°C38 %755 мм4.9 м/с2 %
    14:00Ясно и безоблачно+23°C33 %754 мм4.5 м/с2 %
    17:00Ясно и безоблачно+23°C32 %753 мм4.0 м/с2 %
    20:00Практически безоблачно+19°C55 %753 мм1.9 м/с2 %
    23:00Ясно и безоблачно+14°C65 %753 мм2.9 м/с2 %
  • 19мая
    Воскресенье
    +10°
    +23°
    Облачно с прояснениями
    ВремяПогодаТемператураВлажностьДавлениеВетер, м/сВероятность осадков
    02:00Ясно и безоблачно+12°C65 %753 мм2.7 м/с2 %
    05:00Ясно и безоблачно+11°C68 %752 мм2.7 м/с2 %
    08:00Ясно и безоблачно+17°C61 %753 мм2.2 м/с2 %
    11:00Практически безоблачно+22°C37 %752 мм4.5 м/с3 %
    14:00Облачно с прояснениями+22°C36 %752 мм4.0 м/с11 %
    17:00Практически безоблачно+22°C34 %750 мм3.3 м/с14 %
    20:00Ясно и безоблачно+19°C54 %750 мм2.1 м/с9 %
    23:00Ясно и безоблачно+14°C59 %750 мм2.4 м/с3 %
  • 20мая
    Понедельник
    +11°
    +23°
    Небольшая облачность
    ВремяПогодаТемператураВлажностьДавлениеВетер, м/сВероятность осадков
    02:00Практически безоблачно+13°C72 %751 мм1.9 м/с4 %
    05:00Облачно с прояснениями+11°C85 %751 мм1.9 м/с4 %
    08:00Ясно и безоблачно+17°C71 %752 мм1.1 м/с9 %
    11:00Небольшая облачность+21°C50 %752 мм2.4 м/с26 %
    14:00Небольшая облачность+23°C44 %752 мм2.6 м/с38 %
    17:00Облачно с прояснениями, небольшой дождь+23°C45 %752 мм3.6 м/с60 %
    20:00Облачно с прояснениями+20°C59 %753 мм2.8 м/с32 %
    23:00Облачно с прояснениями+15°C79 %753 мм2.2 м/с2 %
  • 21мая
    Вторник
    +12°
    +25°
    Небольшая облачность и лёгкий дождик
    ВремяПогодаТемператураВлажностьДавлениеВетер, м/сВероятность осадков
    02:00Небольшая облачность+12°C90 %753 мм2.4 м/с3 %
    05:00Практически безоблачно+11°C95 %754 мм2.4 м/с2 %
    08:00Ясно и безоблачно+17°C79 %754 мм2.7 м/с2 %
    11:00Практически безоблачно+22°C56 %754 мм4.0 м/с16 %
    14:00Небольшая облачность и лёгкий дождик+24°C50 %754 мм3.6 м/с27 %
    17:00Ясно и безоблачно+25°C47 %753 мм4.1 м/с32 %
    20:00Ясно и безоблачно+21°C61 %753 мм3.7 м/с13 %
    23:00Ясно и безоблачно+16°C76 %753 мм4.2 м/с2 %
  • 22мая
    Среда
    +12°
    +25°
    Ясно и безоблачно
    ВремяПогодаТемператураВлажностьДавлениеВетер, м/сВероятность осадков
    02:00Ясно и безоблачно+14°C91 %753 мм4.0 м/с2 %
    05:00Ясно и безоблачно+12°C96 %753 мм4.4 м/с3 %
    08:00Небольшая облачность+18°C75 %753 мм6.3 м/с3 %
    11:00Небольшая облачность+23°C51 %753 мм6.8 м/с10 %
    14:00Ясно и безоблачно+24°C47 %752 мм6.4 м/с17 %
    17:00Практически безоблачно+24°C48 %751 мм6.8 м/с18 %
    20:00Практически безоблачно+20°C70 %752 мм5.4 м/с10 %
    23:00Ясно и безоблачно+16°C76 %753 мм5.9 м/с4 %
Мы используем cookies
Соглашаюсь